Terminal Aerodrome Forecast
Issued by NWS

Home | Current Version | Previous Version | Text Only | Print | Product List | Glossary On
Versions: 1 2 3 4 5 6 7 8 9 10 11 12 13 14
000
FTUS41 KBGM 170536
TAFRME
TAF
KRME 170536Z 1706/1806 11003KT P6SM BKN100
      TEMPO 1714/1716 5SM -FZRA OVC040
     FM171600 11007KT 5SM -RA OVC030
     FM171900 11008KT 3SM -RA OVC015
     FM172100 11009KT 3SM -RA OVC008=

USA.gov is the U.S. government's official web portal to all federal, state and local government web resources and services.